sensor_id;sensor_type;location;lat;lon;timestamp;P1;durP1;ratioP1;P2;durP2;ratioP2
84161;SDS011;74285;52.372;12.924;2024-03-25T00:01:58;1.47;;;0.80;;
84161;SDS011;74285;52.372;12.924;2024-03-25T00:04:23;1.20;;;0.50;;
84161;SDS011;74285;52.372;12.924;2024-03-25T00:06:51;1.30;;;0.47;;
84161;SDS011;74285;52.372;12.924;2024-03-25T00:09:18;1.60;;;0.80;;
84161;SDS011;74285;52.372;12.924;2024-03-25T00:11:43;3.20;;;0.77;;
84161;SDS011;74285;52.372;12.924;2024-03-25T00:14:09;1.92;;;0.70;;
84161;SDS011;74285;52.372;12.924;2024-03-25T00:16:34;2.80;;;1.30;;
84161;SDS011;74285;52.372;12.924;2024-03-25T00:19:00;2.92;;;0.90;;
84161;SDS011;74285;52.372;12.924;2024-03-25T00:21:26;2.25;;;0.93;;
84161;SDS011;74285;52.372;12.924;2024-03-25T00:23:51;2.25;;;1.00;;
84161;SDS011;74285;52.372;12.924;2024-03-25T00:26:16;2.03;;;1.00;;
84161;SDS011;74285;52.372;12.924;2024-03-25T00:28:42;2.80;;;1.38;;
84161;SDS011;74285;52.372;12.924;2024-03-25T00:31:07;4.03;;;1.47;;
84161;SDS011;74285;52.372;12.924;2024-03-25T00:33:33;4.33;;;2.10;;
84161;SDS011;74285;52.372;12.924;2024-03-25T00:35:58;2.10;;;1.37;;
84161;SDS011;74285;52.372;12.924;2024-03-25T00:38:24;4.93;;;1.13;;
84161;SDS011;74285;52.372;12.924;2024-03-25T00:40:49;4.00;;;1.10;;
84161;SDS011;74285;52.372;12.924;2024-03-25T00:43:15;3.20;;;1.10;;
84161;SDS011;74285;52.372;12.924;2024-03-25T00:45:40;2.67;;;1.03;;
84161;SDS011;74285;52.372;12.924;2024-03-25T00:48:06;2.65;;;1.20;;
84161;SDS011;74285;52.372;12.924;2024-03-25T00:50:32;2.20;;;1.20;;
84161;SDS011;74285;52.372;12.924;2024-03-25T00:52:57;2.20;;;1.00;;
84161;SDS011;74285;52.372;12.924;2024-03-25T00:55:22;2.03;;;1.00;;
84161;SDS011;74285;52.372;12.924;2024-03-25T00:57:48;1.97;;;0.70;;
84161;SDS011;74285;52.372;12.924;2024-03-25T01:00:13;3.57;;;1.00;;
84161;SDS011;74285;52.372;12.924;2024-03-25T01:02:40;1.30;;;0.70;;
84161;SDS011;74285;52.372;12.924;2024-03-25T01:05:05;4.17;;;0.70;;
84161;SDS011;74285;52.372;12.924;2024-03-25T01:07:31;1.10;;;0.60;;
84161;SDS011;74285;52.372;12.924;2024-03-25T01:09:57;3.40;;;1.20;;
84161;SDS011;74285;52.372;12.924;2024-03-25T01:12:23;2.05;;;1.08;;
84161;SDS011;74285;52.372;12.924;2024-03-25T01:14:49;2.20;;;1.10;;
84161;SDS011;74285;52.372;12.924;2024-03-25T01:17:14;2.93;;;1.40;;
84161;SDS011;74285;52.372;12.924;2024-03-25T01:19:39;2.57;;;1.20;;
84161;SDS011;74285;52.372;12.924;2024-03-25T01:22:05;6.07;;;1.50;;
84161;SDS011;74285;52.372;12.924;2024-03-25T01:24:30;5.18;;;1.60;;
84161;SDS011;74285;52.372;12.924;2024-03-25T01:26:55;3.30;;;1.30;;
84161;SDS011;74285;52.372;12.924;2024-03-25T01:29:20;5.53;;;1.60;;
84161;SDS011;74285;52.372;12.924;2024-03-25T01:31:46;5.25;;;2.00;;
84161;SDS011;74285;52.372;12.924;2024-03-25T01:34:12;5.17;;;1.83;;
84161;SDS011;74285;52.372;12.924;2024-03-25T01:36:37;6.60;;;2.00;;
84161;SDS011;74285;52.372;12.924;2024-03-25T01:39:02;5.57;;;1.70;;
84161;SDS011;74285;52.372;12.924;2024-03-25T01:41:29;5.55;;;1.90;;
84161;SDS011;74285;52.372;12.924;2024-03-25T01:43:55;5.53;;;2.00;;
84161;SDS011;74285;52.372;12.924;2024-03-25T01:46:20;5.83;;;2.43;;
84161;SDS011;74285;52.372;12.924;2024-03-25T01:48:46;4.03;;;1.85;;
84161;SDS011;74285;52.372;12.924;2024-03-25T01:51:13;4.82;;;1.95;;
84161;SDS011;74285;52.372;12.924;2024-03-25T01:53:40;4.97;;;1.90;;
84161;SDS011;74285;52.372;12.924;2024-03-25T01:56:06;5.40;;;1.88;;
84161;SDS011;74285;52.372;12.924;2024-03-25T01:58:32;3.85;;;1.60;;
84161;SDS011;74285;52.372;12.924;2024-03-25T02:00:57;3.47;;;1.73;;
84161;SDS011;74285;52.372;12.924;2024-03-25T02:03:24;4.18;;;1.55;;
84161;SDS011;74285;52.372;12.924;2024-03-25T02:05:55;3.53;;;1.25;;
84161;SDS011;74285;52.372;12.924;2024-03-25T02:08:23;3.22;;;1.33;;
84161;SDS011;74285;52.372;12.924;2024-03-25T02:10:49;3.25;;;1.38;;
84161;SDS011;74285;52.372;12.924;2024-03-25T02:13:15;3.75;;;1.23;;
84161;SDS011;74285;52.372;12.924;2024-03-25T02:15:40;1.50;;;0.55;;
84161;SDS011;74285;52.372;12.924;2024-03-25T02:18:06;1.65;;;0.85;;
84161;SDS011;74285;52.372;12.924;2024-03-25T02:20:31;1.10;;;0.60;;
84161;SDS011;74285;52.372;12.924;2024-03-25T02:22:57;3.17;;;1.10;;
84161;SDS011;74285;52.372;12.924;2024-03-25T02:25:22;3.88;;;1.27;;
84161;SDS011;74285;52.372;12.924;2024-03-25T02:27:48;5.55;;;0.77;;
84161;SDS011;74285;52.372;12.924;2024-03-25T02:30:13;1.93;;;0.60;;
84161;SDS011;74285;52.372;12.924;2024-03-25T02:32:39;2.15;;;0.80;;
84161;SDS011;74285;52.372;12.924;2024-03-25T02:35:06;0.90;;;0.63;;
84161;SDS011;74285;52.372;12.924;2024-03-25T02:37:37;2.78;;;0.70;;
84161;SDS011;74285;52.372;12.924;2024-03-25T02:40:04;2.28;;;0.88;;
84161;SDS011;74285;52.372;12.924;2024-03-25T02:42:32;3.90;;;0.82;;
84161;SDS011;74285;52.372;12.924;2024-03-25T02:44:58;3.60;;;0.55;;
84161;SDS011;74285;52.372;12.924;2024-03-25T02:47:23;2.50;;;0.70;;
84161;SDS011;74285;52.372;12.924;2024-03-25T02:49:49;1.77;;;0.60;;
84161;SDS011;74285;52.372;12.924;2024-03-25T02:52:14;1.40;;;0.50;;
84161;SDS011;74285;52.372;12.924;2024-03-25T02:54:39;1.80;;;0.60;;
84161;SDS011;74285;52.372;12.924;2024-03-25T02:57:05;1.13;;;0.50;;
84161;SDS011;74285;52.372;12.924;2024-03-25T02:59:30;1.57;;;0.80;;
84161;SDS011;74285;52.372;12.924;2024-03-25T03:01:55;1.53;;;0.50;;
84161;SDS011;74285;52.372;12.924;2024-03-25T03:04:21;1.80;;;0.70;;
84161;SDS011;74285;52.372;12.924;2024-03-25T03:06:46;0.93;;;0.40;;
84161;SDS011;74285;52.372;12.924;2024-03-25T03:09:11;2.67;;;0.73;;
84161;SDS011;74285;52.372;12.924;2024-03-25T03:11:36;5.83;;;0.87;;
84161;SDS011;74285;52.372;12.924;2024-03-25T03:14:02;2.00;;;0.53;;
84161;SDS011;74285;52.372;12.924;2024-03-25T03:16:27;1.85;;;0.85;;
84161;SDS011;74285;52.372;12.924;2024-03-25T03:21:19;1.80;;;0.57;;
84161;SDS011;74285;52.372;12.924;2024-03-25T03:23:44;2.27;;;0.77;;
84161;SDS011;74285;52.372;12.924;2024-03-25T03:26:09;3.00;;;0.67;;
84161;SDS011;74285;52.372;12.924;2024-03-25T03:28:35;1.83;;;1.20;;
84161;SDS011;74285;52.372;12.924;2024-03-25T03:31:00;2.17;;;0.80;;
84161;SDS011;74285;52.372;12.924;2024-03-25T03:33:25;4.37;;;0.77;;
84161;SDS011;74285;52.372;12.924;2024-03-25T03:35:51;6.30;;;1.30;;
84161;SDS011;74285;52.372;12.924;2024-03-25T03:38:16;3.47;;;1.05;;
84161;SDS011;74285;52.372;12.924;2024-03-25T03:40:41;4.00;;;1.17;;
84161;SDS011;74285;52.372;12.924;2024-03-25T03:43:07;2.57;;;0.70;;
84161;SDS011;74285;52.372;12.924;2024-03-25T03:45:33;1.70;;;0.90;;
84161;SDS011;74285;52.372;12.924;2024-03-25T03:47:59;2.38;;;0.93;;
84161;SDS011;74285;52.372;12.924;2024-03-25T03:50:24;3.60;;;1.33;;
84161;SDS011;74285;52.372;12.924;2024-03-25T03:52:50;4.50;;;1.80;;
84161;SDS011;74285;52.372;12.924;2024-03-25T03:55:15;3.83;;;1.10;;
84161;SDS011;74285;52.372;12.924;2024-03-25T03:57:40;2.97;;;1.00;;
84161;SDS011;74285;52.372;12.924;2024-03-25T04:00:07;3.90;;;1.08;;
84161;SDS011;74285;52.372;12.924;2024-03-25T04:02:33;2.85;;;1.02;;
84161;SDS011;74285;52.372;12.924;2024-03-25T04:04:58;1.57;;;0.77;;
84161;SDS011;74285;52.372;12.924;2024-03-25T04:07:24;5.50;;;1.55;;
84161;SDS011;74285;52.372;12.924;2024-03-25T04:09:52;1.58;;;0.55;;
84161;SDS011;74285;52.372;12.924;2024-03-25T04:12:18;3.42;;;0.60;;
84161;SDS011;74285;52.372;12.924;2024-03-25T04:14:46;3.95;;;1.08;;
84161;SDS011;74285;52.372;12.924;2024-03-25T04:17:11;1.65;;;0.80;;
84161;SDS011;74285;52.372;12.924;2024-03-25T04:19:37;1.63;;;0.87;;
84161;SDS011;74285;52.372;12.924;2024-03-25T04:22:02;3.23;;;1.10;;
84161;SDS011;74285;52.372;12.924;2024-03-25T04:24:28;3.33;;;0.98;;
84161;SDS011;74285;52.372;12.924;2024-03-25T04:26:53;6.90;;;1.27;;
84161;SDS011;74285;52.372;12.924;2024-03-25T04:29:19;6.13;;;0.98;;
84161;SDS011;74285;52.372;12.924;2024-03-25T04:31:44;2.13;;;1.17;;
84161;SDS011;74285;52.372;12.924;2024-03-25T04:34:10;6.07;;;1.00;;
84161;SDS011;74285;52.372;12.924;2024-03-25T04:36:35;3.90;;;1.50;;
84161;SDS011;74285;52.372;12.924;2024-03-25T04:39:01;5.43;;;1.57;;
84161;SDS011;74285;52.372;12.924;2024-03-25T04:41:27;2.33;;;0.93;;
84161;SDS011;74285;52.372;12.924;2024-03-25T04:43:52;3.97;;;1.23;;
84161;SDS011;74285;52.372;12.924;2024-03-25T04:46:17;6.03;;;1.87;;
84161;SDS011;74285;52.372;12.924;2024-03-25T04:48:43;2.67;;;1.30;;
84161;SDS011;74285;52.372;12.924;2024-03-25T04:51:08;5.60;;;1.85;;
84161;SDS011;74285;52.372;12.924;2024-03-25T04:53:34;2.50;;;1.20;;
84161;SDS011;74285;52.372;12.924;2024-03-25T04:55:59;4.72;;;1.30;;
84161;SDS011;74285;52.372;12.924;2024-03-25T04:58:24;6.33;;;1.20;;
84161;SDS011;74285;52.372;12.924;2024-03-25T05:00:50;3.27;;;0.80;;
84161;SDS011;74285;52.372;12.924;2024-03-25T05:03:15;4.03;;;1.40;;
84161;SDS011;74285;52.372;12.924;2024-03-25T05:05:40;5.87;;;1.20;;
84161;SDS011;74285;52.372;12.924;2024-03-25T05:08:06;2.58;;;1.08;;
84161;SDS011;74285;52.372;12.924;2024-03-25T05:10:31;5.78;;;1.38;;
84161;SDS011;74285;52.372;12.924;2024-03-25T05:12:56;4.87;;;1.10;;
84161;SDS011;74285;52.372;12.924;2024-03-25T05:15:22;3.70;;;1.08;;
84161;SDS011;74285;52.372;12.924;2024-03-25T05:17:47;5.13;;;1.27;;
84161;SDS011;74285;52.372;12.924;2024-03-25T05:20:12;2.97;;;1.00;;
84161;SDS011;74285;52.372;12.924;2024-03-25T05:22:38;3.70;;;1.80;;
84161;SDS011;74285;52.372;12.924;2024-03-25T05:25:03;4.17;;;1.17;;
84161;SDS011;74285;52.372;12.924;2024-03-25T05:27:28;2.78;;;1.08;;
84161;SDS011;74285;52.372;12.924;2024-03-25T05:29:54;7.80;;;1.67;;
84161;SDS011;74285;52.372;12.924;2024-03-25T05:32:19;2.10;;;1.20;;
84161;SDS011;74285;52.372;12.924;2024-03-25T05:34:46;3.20;;;1.10;;
84161;SDS011;74285;52.372;12.924;2024-03-25T05:37:12;3.30;;;0.75;;
84161;SDS011;74285;52.372;12.924;2024-03-25T05:39:37;7.03;;;1.53;;
84161;SDS011;74285;52.372;12.924;2024-03-25T05:42:02;4.77;;;1.43;;
84161;SDS011;74285;52.372;12.924;2024-03-25T05:44:28;3.17;;;1.20;;
84161;SDS011;74285;52.372;12.924;2024-03-25T05:46:53;5.13;;;1.37;;
84161;SDS011;74285;52.372;12.924;2024-03-25T05:49:18;7.37;;;1.37;;
84161;SDS011;74285;52.372;12.924;2024-03-25T05:51:43;3.37;;;1.10;;
84161;SDS011;74285;52.372;12.924;2024-03-25T05:54:09;4.53;;;1.20;;
84161;SDS011;74285;52.372;12.924;2024-03-25T05:56:34;4.90;;;0.70;;
84161;SDS011;74285;52.372;12.924;2024-03-25T05:59:00;9.33;;;1.10;;
84161;SDS011;74285;52.372;12.924;2024-03-25T06:01:25;3.22;;;0.60;;
84161;SDS011;74285;52.372;12.924;2024-03-25T06:03:51;2.75;;;1.58;;
84161;SDS011;74285;52.372;12.924;2024-03-25T06:06:16;3.33;;;1.33;;
84161;SDS011;74285;52.372;12.924;2024-03-25T06:08:42;3.53;;;0.80;;
84161;SDS011;74285;52.372;12.924;2024-03-25T06:11:07;4.30;;;1.10;;
84161;SDS011;74285;52.372;12.924;2024-03-25T06:13:32;3.53;;;0.83;;
84161;SDS011;74285;52.372;12.924;2024-03-25T06:15:58;6.13;;;1.47;;
84161;SDS011;74285;52.372;12.924;2024-03-25T06:18:23;6.60;;;1.33;;
84161;SDS011;74285;52.372;12.924;2024-03-25T06:20:48;2.47;;;1.07;;
84161;SDS011;74285;52.372;12.924;2024-03-25T06:23:24;1.83;;;0.93;;
84161;SDS011;74285;52.372;12.924;2024-03-25T06:25:50;3.85;;;1.20;;
84161;SDS011;74285;52.372;12.924;2024-03-25T06:28:16;6.20;;;1.38;;
84161;SDS011;74285;52.372;12.924;2024-03-25T06:30:41;1.93;;;1.10;;
84161;SDS011;74285;52.372;12.924;2024-03-25T06:33:25;4.20;;;1.40;;
84161;SDS011;74285;52.372;12.924;2024-03-25T06:36:09;3.33;;;1.33;;
84161;SDS011;74285;52.372;12.924;2024-03-25T06:38:34;4.27;;;1.23;;
84161;SDS011;74285;52.372;12.924;2024-03-25T06:40:59;3.77;;;1.60;;
84161;SDS011;74285;52.372;12.924;2024-03-25T06:43:24;3.10;;;1.57;;
84161;SDS011;74285;52.372;12.924;2024-03-25T06:45:50;3.00;;;1.33;;
84161;SDS011;74285;52.372;12.924;2024-03-25T06:48:15;2.15;;;1.00;;
84161;SDS011;74285;52.372;12.924;2024-03-25T06:50:41;4.00;;;1.70;;
84161;SDS011;74285;52.372;12.924;2024-03-25T06:53:06;4.67;;;1.53;;
84161;SDS011;74285;52.372;12.924;2024-03-25T06:55:31;5.07;;;1.40;;
84161;SDS011;74285;52.372;12.924;2024-03-25T06:57:56;2.60;;;1.17;;
84161;SDS011;74285;52.372;12.924;2024-03-25T07:00:22;2.90;;;1.50;;
84161;SDS011;74285;52.372;12.924;2024-03-25T07:02:50;2.93;;;1.53;;
84161;SDS011;74285;52.372;12.924;2024-03-25T07:05:16;3.92;;;1.77;;
84161;SDS011;74285;52.372;12.924;2024-03-25T07:07:41;2.50;;;1.30;;
84161;SDS011;74285;52.372;12.924;2024-03-25T07:10:06;6.22;;;1.95;;
84161;SDS011;74285;52.372;12.924;2024-03-25T07:12:32;4.93;;;1.80;;
84161;SDS011;74285;52.372;12.924;2024-03-25T07:14:57;2.93;;;1.70;;
84161;SDS011;74285;52.372;12.924;2024-03-25T07:17:22;2.80;;;1.30;;
84161;SDS011;74285;52.372;12.924;2024-03-25T07:19:48;4.50;;;1.60;;
84161;SDS011;74285;52.372;12.924;2024-03-25T07:22:13;3.87;;;1.50;;
84161;SDS011;74285;52.372;12.924;2024-03-25T07:24:38;3.90;;;1.40;;
84161;SDS011;74285;52.372;12.924;2024-03-25T07:27:04;2.85;;;1.73;;
84161;SDS011;74285;52.372;12.924;2024-03-25T07:29:30;2.80;;;1.73;;
84161;SDS011;74285;52.372;12.924;2024-03-25T07:31:55;2.70;;;1.00;;
84161;SDS011;74285;52.372;12.924;2024-03-25T07:34:21;4.40;;;1.20;;
84161;SDS011;74285;52.372;12.924;2024-03-25T07:36:46;2.87;;;1.00;;
84161;SDS011;74285;52.372;12.924;2024-03-25T07:39:13;3.92;;;1.38;;
84161;SDS011;74285;52.372;12.924;2024-03-25T07:41:39;4.32;;;1.63;;
84161;SDS011;74285;52.372;12.924;2024-03-25T07:44:04;2.07;;;0.87;;
84161;SDS011;74285;52.372;12.924;2024-03-25T07:46:30;2.23;;;1.13;;
84161;SDS011;74285;52.372;12.924;2024-03-25T07:48:55;5.85;;;1.17;;
84161;SDS011;74285;52.372;12.924;2024-03-25T07:51:20;1.80;;;0.80;;
84161;SDS011;74285;52.372;12.924;2024-03-25T07:53:46;3.33;;;1.20;;
84161;SDS011;74285;52.372;12.924;2024-03-25T07:56:11;1.90;;;0.90;;
84161;SDS011;74285;52.372;12.924;2024-03-25T07:58:36;3.80;;;1.07;;
84161;SDS011;74285;52.372;12.924;2024-03-25T08:01:02;8.10;;;1.70;;
84161;SDS011;74285;52.372;12.924;2024-03-25T08:03:27;2.83;;;0.80;;
84161;SDS011;74285;52.372;12.924;2024-03-25T08:05:52;4.30;;;1.00;;
84161;SDS011;74285;52.372;12.924;2024-03-25T08:08:17;6.33;;;1.60;;
84161;SDS011;74285;52.372;12.924;2024-03-25T08:10:43;3.27;;;1.60;;
84161;SDS011;74285;52.372;12.924;2024-03-25T08:13:08;3.50;;;1.20;;
84161;SDS011;74285;52.372;12.924;2024-03-25T08:15:33;2.90;;;0.90;;
84161;SDS011;74285;52.372;12.924;2024-03-25T08:17:59;5.23;;;1.07;;
84161;SDS011;74285;52.372;12.924;2024-03-25T08:20:24;2.43;;;1.13;;
84161;SDS011;74285;52.372;12.924;2024-03-25T08:22:49;4.57;;;1.10;;
84161;SDS011;74285;52.372;12.924;2024-03-25T08:25:14;0.97;;;0.60;;
84161;SDS011;74285;52.372;12.924;2024-03-25T08:27:40;5.30;;;2.07;;
84161;SDS011;74285;52.372;12.924;2024-03-25T08:30:05;2.60;;;1.13;;
84161;SDS011;74285;52.372;12.924;2024-03-25T08:32:31;1.92;;;1.13;;
84161;SDS011;74285;52.372;12.924;2024-03-25T08:34:57;3.38;;;1.23;;
84161;SDS011;74285;52.372;12.924;2024-03-25T08:37:23;3.28;;;1.13;;
84161;SDS011;74285;52.372;12.924;2024-03-25T08:39:48;3.47;;;1.43;;
84161;SDS011;74285;52.372;12.924;2024-03-25T08:42:13;4.43;;;1.20;;
84161;SDS011;74285;52.372;12.924;2024-03-25T08:44:39;7.37;;;1.50;;
84161;SDS011;74285;52.372;12.924;2024-03-25T08:47:04;1.40;;;0.60;;
84161;SDS011;74285;52.372;12.924;2024-03-25T08:49:29;4.57;;;1.13;;
84161;SDS011;74285;52.372;12.924;2024-03-25T08:51:54;1.70;;;0.90;;
84161;SDS011;74285;52.372;12.924;2024-03-25T08:54:20;5.10;;;1.00;;
84161;SDS011;74285;52.372;12.924;2024-03-25T08:56:45;14.10;;;1.73;;
84161;SDS011;74285;52.372;12.924;2024-03-25T08:59:10;3.20;;;1.27;;
84161;SDS011;74285;52.372;12.924;2024-03-25T09:01:35;2.93;;;0.97;;
84161;SDS011;74285;52.372;12.924;2024-03-25T09:04:01;3.97;;;1.10;;
84161;SDS011;74285;52.372;12.924;2024-03-25T09:06:27;1.03;;;0.80;;
84161;SDS011;74285;52.372;12.924;2024-03-25T09:08:52;2.63;;;1.30;;
84161;SDS011;74285;52.372;12.924;2024-03-25T09:14:09;3.00;;;0.95;;
84161;SDS011;74285;52.372;12.924;2024-03-25T09:16:36;3.20;;;1.13;;
84161;SDS011;74285;52.372;12.924;2024-03-25T09:19:01;2.87;;;0.93;;
84161;SDS011;74285;52.372;12.924;2024-03-25T09:21:26;1.73;;;1.00;;
84161;SDS011;74285;52.372;12.924;2024-03-25T09:23:52;1.98;;;0.63;;
84161;SDS011;74285;52.372;12.924;2024-03-25T09:26:18;2.40;;;0.88;;
84161;SDS011;74285;52.372;12.924;2024-03-25T09:28:43;1.10;;;0.60;;
84161;SDS011;74285;52.372;12.924;2024-03-25T09:31:08;5.67;;;1.40;;
84161;SDS011;74285;52.372;12.924;2024-03-25T09:33:34;1.30;;;0.70;;
84161;SDS011;74285;52.372;12.924;2024-03-25T09:35:59;3.80;;;1.43;;
84161;SDS011;74285;52.372;12.924;2024-03-25T09:38:24;3.87;;;1.10;;
84161;SDS011;74285;52.372;12.924;2024-03-25T09:40:50;3.60;;;1.10;;
84161;SDS011;74285;52.372;12.924;2024-03-25T09:43:23;1.63;;;0.90;;
84161;SDS011;74285;52.372;12.924;2024-03-25T09:45:49;2.10;;;1.00;;
84161;SDS011;74285;52.372;12.924;2024-03-25T09:48:15;2.15;;;0.93;;
84161;SDS011;74285;52.372;12.924;2024-03-25T09:50:41;2.05;;;0.90;;
84161;SDS011;74285;52.372;12.924;2024-03-25T09:53:08;3.78;;;0.88;;
84161;SDS011;74285;52.372;12.924;2024-03-25T09:55:33;4.30;;;1.10;;
84161;SDS011;74285;52.372;12.924;2024-03-25T09:57:58;2.00;;;0.90;;
84161;SDS011;74285;52.372;12.924;2024-03-25T10:00:24;2.33;;;1.08;;
84161;SDS011;74285;52.372;12.924;2024-03-25T10:02:49;2.13;;;0.80;;
84161;SDS011;74285;52.372;12.924;2024-03-25T10:05:14;4.60;;;0.90;;
84161;SDS011;74285;52.372;12.924;2024-03-25T10:07:40;1.63;;;1.20;;
84161;SDS011;74285;52.372;12.924;2024-03-25T10:10:05;3.67;;;0.90;;
84161;SDS011;74285;52.372;12.924;2024-03-25T10:12:31;4.78;;;1.10;;
84161;SDS011;74285;52.372;12.924;2024-03-25T10:14:57;2.33;;;1.15;;
84161;SDS011;74285;52.372;12.924;2024-03-25T10:17:23;3.42;;;0.77;;
84161;SDS011;74285;52.372;12.924;2024-03-25T10:19:48;3.20;;;0.77;;
84161;SDS011;74285;52.372;12.924;2024-03-25T10:22:13;1.40;;;0.70;;
84161;SDS011;74285;52.372;12.924;2024-03-25T10:24:42;0.83;;;0.50;;
84161;SDS011;74285;52.372;12.924;2024-03-25T10:27:18;8.23;;;1.42;;
84161;SDS011;74285;52.372;12.924;2024-03-25T10:29:45;1.90;;;0.70;;
84161;SDS011;74285;52.372;12.924;2024-03-25T10:32:11;2.03;;;1.02;;
84161;SDS011;74285;52.372;12.924;2024-03-25T10:34:38;3.45;;;1.02;;
84161;SDS011;74285;52.372;12.924;2024-03-25T10:37:03;2.40;;;1.10;;
84161;SDS011;74285;52.372;12.924;2024-03-25T10:39:30;1.40;;;0.80;;
84161;SDS011;74285;52.372;12.924;2024-03-25T10:41:57;1.20;;;1.10;;
84161;SDS011;74285;52.372;12.924;2024-03-25T10:44:26;2.15;;;0.73;;
84161;SDS011;74285;52.372;12.924;2024-03-25T10:46:57;2.53;;;0.85;;
84161;SDS011;74285;52.372;12.924;2024-03-25T10:50:11;2.35;;;1.25;;
84161;SDS011;74285;52.372;12.924;2024-03-25T10:52:21;2.35;;;0.90;;
84161;SDS011;74285;52.372;12.924;2024-03-25T10:54:47;1.60;;;0.98;;
84161;SDS011;74285;52.372;12.924;2024-03-25T10:57:12;5.53;;;1.13;;
84161;SDS011;74285;52.372;12.924;2024-03-25T10:59:38;1.67;;;0.70;;
84161;SDS011;74285;52.372;12.924;2024-03-25T11:02:06;3.33;;;0.90;;
84161;SDS011;74285;52.372;12.924;2024-03-25T11:04:32;2.10;;;0.80;;
84161;SDS011;74285;52.372;12.924;2024-03-25T11:07:10;2.05;;;0.82;;
84161;SDS011;74285;52.372;12.924;2024-03-25T11:09:37;2.53;;;0.60;;
84161;SDS011;74285;52.372;12.924;2024-03-25T11:12:03;1.10;;;0.63;;
84161;SDS011;74285;52.372;12.924;2024-03-25T11:14:28;3.53;;;0.75;;
84161;SDS011;74285;52.372;12.924;2024-03-25T11:16:57;2.42;;;0.90;;
84161;SDS011;74285;52.372;12.924;2024-03-25T11:19:25;2.83;;;0.80;;
84161;SDS011;74285;52.372;12.924;2024-03-25T11:21:51;0.40;;;0.10;;
84161;SDS011;74285;52.372;12.924;2024-03-25T11:24:26;1.73;;;0.30;;
84161;SDS011;74285;52.372;12.924;2024-03-25T11:26:52;0.68;;;0.40;;
84161;SDS011;74285;52.372;12.924;2024-03-25T11:29:18;1.58;;;0.30;;
84161;SDS011;74285;52.372;12.924;2024-03-25T11:31:43;1.00;;;0.50;;
84161;SDS011;74285;52.372;12.924;2024-03-25T11:34:10;0.60;;;0.38;;
84161;SDS011;74285;52.372;12.924;2024-03-25T11:36:35;1.67;;;0.57;;
84161;SDS011;74285;52.372;12.924;2024-03-25T11:39:00;3.53;;;1.20;;
84161;SDS011;74285;52.372;12.924;2024-03-25T11:41:33;1.10;;;0.30;;
84161;SDS011;74285;52.372;12.924;2024-03-25T11:43:58;0.82;;;0.50;;
84161;SDS011;74285;52.372;12.924;2024-03-25T11:46:24;2.60;;;0.82;;
84161;SDS011;74285;52.372;12.924;2024-03-25T11:51:19;1.05;;;0.50;;
84161;SDS011;74285;52.372;12.924;2024-03-25T11:53:44;1.35;;;0.50;;
84161;SDS011;74285;52.372;12.924;2024-03-25T11:56:13;1.47;;;0.47;;
84161;SDS011;74285;52.372;12.924;2024-03-25T11:58:39;0.57;;;0.50;;
84161;SDS011;74285;52.372;12.924;2024-03-25T12:01:04;2.28;;;0.90;;
84161;SDS011;74285;52.372;12.924;2024-03-25T12:03:30;1.58;;;0.30;;
84161;SDS011;74285;52.372;12.924;2024-03-25T12:05:55;2.50;;;0.50;;
84161;SDS011;74285;52.372;12.924;2024-03-25T12:08:21;2.20;;;0.60;;
84161;SDS011;74285;52.372;12.924;2024-03-25T12:10:50;3.00;;;0.80;;
84161;SDS011;74285;52.372;12.924;2024-03-25T12:13:35;2.03;;;0.68;;
84161;SDS011;74285;52.372;12.924;2024-03-25T12:16:00;2.05;;;0.40;;
84161;SDS011;74285;52.372;12.924;2024-03-25T12:18:25;1.20;;;0.40;;
84161;SDS011;74285;52.372;12.924;2024-03-25T12:20:51;0.70;;;0.30;;
84161;SDS011;74285;52.372;12.924;2024-03-25T12:23:17;2.08;;;0.65;;
84161;SDS011;74285;52.372;12.924;2024-03-25T12:25:47;2.55;;;0.50;;
84161;SDS011;74285;52.372;12.924;2024-03-25T12:28:13;0.50;;;0.40;;
84161;SDS011;74285;52.372;12.924;2024-03-25T12:30:52;1.77;;;0.50;;
84161;SDS011;74285;52.372;12.924;2024-03-25T12:33:20;1.05;;;0.70;;
84161;SDS011;74285;52.372;12.924;2024-03-25T12:35:46;3.33;;;0.90;;
84161;SDS011;74285;52.372;12.924;2024-03-25T12:38:21;2.35;;;0.73;;
84161;SDS011;74285;52.372;12.924;2024-03-25T12:40:49;0.90;;;0.65;;
84161;SDS011;74285;52.372;12.924;2024-03-25T12:43:15;1.97;;;0.60;;
84161;SDS011;74285;52.372;12.924;2024-03-25T12:45:41;4.28;;;0.95;;
84161;SDS011;74285;52.372;12.924;2024-03-25T12:48:06;1.23;;;0.50;;
84161;SDS011;74285;52.372;12.924;2024-03-25T12:50:32;2.15;;;0.68;;
84161;SDS011;74285;52.372;12.924;2024-03-25T12:52:57;1.63;;;0.67;;
84161;SDS011;74285;52.372;12.924;2024-03-25T12:55:22;2.83;;;0.77;;
84161;SDS011;74285;52.372;12.924;2024-03-25T12:57:47;1.60;;;0.70;;
84161;SDS011;74285;52.372;12.924;2024-03-25T13:00:13;1.00;;;0.60;;
84161;SDS011;74285;52.372;12.924;2024-03-25T13:02:39;1.95;;;0.88;;
84161;SDS011;74285;52.372;12.924;2024-03-25T13:05:04;1.93;;;0.63;;
84161;SDS011;74285;52.372;12.924;2024-03-25T13:07:30;1.70;;;0.52;;
84161;SDS011;74285;52.372;12.924;2024-03-25T13:09:55;1.10;;;0.57;;
84161;SDS011;74285;52.372;12.924;2024-03-25T13:12:20;1.27;;;0.43;;
84161;SDS011;74285;52.372;12.924;2024-03-25T13:14:46;1.83;;;0.40;;
84161;SDS011;74285;52.372;12.924;2024-03-25T13:17:11;0.80;;;0.40;;
84161;SDS011;74285;52.372;12.924;2024-03-25T13:19:36;2.33;;;0.70;;
84161;SDS011;74285;52.372;12.924;2024-03-25T13:22:01;2.28;;;0.47;;
84161;SDS011;74285;52.372;12.924;2024-03-25T13:24:27;2.97;;;0.50;;
84161;SDS011;74285;52.372;12.924;2024-03-25T13:26:52;0.60;;;0.30;;
84161;SDS011;74285;52.372;12.924;2024-03-25T13:29:18;0.63;;;0.50;;
84161;SDS011;74285;52.372;12.924;2024-03-25T13:31:44;1.80;;;0.57;;
84161;SDS011;74285;52.372;12.924;2024-03-25T13:34:09;1.13;;;0.50;;
84161;SDS011;74285;52.372;12.924;2024-03-25T13:36:34;0.90;;;0.40;;
84161;SDS011;74285;52.372;12.924;2024-03-25T13:39:00;0.87;;;0.40;;
84161;SDS011;74285;52.372;12.924;2024-03-25T13:41:25;1.20;;;0.50;;
84161;SDS011;74285;52.372;12.924;2024-03-25T13:43:50;2.10;;;1.00;;
84161;SDS011;74285;52.372;12.924;2024-03-25T13:46:15;3.73;;;0.70;;
84161;SDS011;74285;52.372;12.924;2024-03-25T13:48:41;1.27;;;0.57;;
84161;SDS011;74285;52.372;12.924;2024-03-25T13:51:06;5.77;;;0.57;;
84161;SDS011;74285;52.372;12.924;2024-03-25T13:53:31;1.13;;;0.30;;
84161;SDS011;74285;52.372;12.924;2024-03-25T13:55:57;1.55;;;0.47;;
84161;SDS011;74285;52.372;12.924;2024-03-25T13:58:22;0.43;;;0.27;;
84161;SDS011;74285;52.372;12.924;2024-03-25T14:00:48;1.43;;;0.50;;
84161;SDS011;74285;52.372;12.924;2024-03-25T14:03:13;0.68;;;0.30;;
84161;SDS011;74285;52.372;12.924;2024-03-25T14:05:40;0.95;;;0.22;;
84161;SDS011;74285;52.372;12.924;2024-03-25T14:08:06;1.17;;;0.20;;
84161;SDS011;74285;52.372;12.924;2024-03-25T14:10:31;0.93;;;0.30;;
84161;SDS011;74285;52.372;12.924;2024-03-25T14:12:56;0.88;;;0.40;;
84161;SDS011;74285;52.372;12.924;2024-03-25T14:15:22;2.97;;;0.53;;
84161;SDS011;74285;52.372;12.924;2024-03-25T14:17:47;0.97;;;0.40;;
84161;SDS011;74285;52.372;12.924;2024-03-25T14:20:12;1.53;;;0.57;;
84161;SDS011;74285;52.372;12.924;2024-03-25T14:22:38;0.90;;;0.37;;
84161;SDS011;74285;52.372;12.924;2024-03-25T14:25:03;0.93;;;0.70;;
84161;SDS011;74285;52.372;12.924;2024-03-25T14:27:29;2.55;;;0.90;;
84161;SDS011;74285;52.372;12.924;2024-03-25T14:29:54;2.37;;;0.27;;
84161;SDS011;74285;52.372;12.924;2024-03-25T14:32:19;2.10;;;0.50;;
84161;SDS011;74285;52.372;12.924;2024-03-25T14:34:45;2.33;;;0.95;;